sensor_id;sensor_type;location;lat;lon;timestamp;pressure;altitude;pressure_sealevel;temperature;humidity
46778;BME280;32536;47.128;8.746;2022-11-28T00:01:28;91447.00;;;9.18;47.84
46778;BME280;32536;47.128;8.746;2022-11-28T00:03:56;91444.34;;;9.18;48.13
46778;BME280;32536;47.128;8.746;2022-11-28T00:06:23;91444.00;;;9.12;48.18
46778;BME280;32536;47.128;8.746;2022-11-28T00:08:50;91445.16;;;9.11;47.83
46778;BME280;32536;47.128;8.746;2022-11-28T00:11:17;91449.31;;;9.16;48.02
46778;BME280;32536;47.128;8.746;2022-11-28T00:13:45;91449.69;;;9.18;47.83
46778;BME280;32536;47.128;8.746;2022-11-28T00:16:17;91439.38;;;9.17;47.64
46778;BME280;32536;47.128;8.746;2022-11-28T00:18:47;91434.09;;;9.13;48.20
46778;BME280;32536;47.128;8.746;2022-11-28T00:21:14;91432.66;;;9.05;48.30
46778;BME280;32536;47.128;8.746;2022-11-28T00:23:43;91433.09;;;9.00;48.02
46778;BME280;32536;47.128;8.746;2022-11-28T00:26:13;91436.91;;;8.99;47.86
46778;BME280;32536;47.128;8.746;2022-11-28T00:28:41;91435.41;;;8.97;48.04
46778;BME280;32536;47.128;8.746;2022-11-28T00:31:13;91433.50;;;8.94;47.33
46778;BME280;32536;47.128;8.746;2022-11-28T00:33:42;91430.44;;;9.00;48.16
46778;BME280;32536;47.128;8.746;2022-11-28T00:36:09;91426.19;;;9.02;48.12
46778;BME280;32536;47.128;8.746;2022-11-28T00:38:36;91429.63;;;9.03;47.98
46778;BME280;32536;47.128;8.746;2022-11-28T00:41:09;91425.41;;;9.02;47.98
46778;BME280;32536;47.128;8.746;2022-11-28T00:43:42;91429.22;;;9.04;48.13
46778;BME280;32536;47.128;8.746;2022-11-28T00:46:10;91428.00;;;9.09;47.91
46778;BME280;32536;47.128;8.746;2022-11-28T00:48:37;91426.44;;;9.11;48.01
46778;BME280;32536;47.128;8.746;2022-11-28T00:51:09;91427.94;;;9.16;47.92
46778;BME280;32536;47.128;8.746;2022-11-28T00:53:42;91424.84;;;9.18;48.22
46778;BME280;32536;47.128;8.746;2022-11-28T00:56:11;91429.41;;;9.21;48.15
46778;BME280;32536;47.128;8.746;2022-11-28T00:58:41;91432.44;;;9.23;48.34
46778;BME280;32536;47.128;8.746;2022-11-28T01:01:16;91424.38;;;9.26;47.76
46778;BME280;32536;47.128;8.746;2022-11-28T01:03:46;91430.81;;;9.33;47.97
46778;BME280;32536;47.128;8.746;2022-11-28T01:06:44;91429.25;;;9.35;46.90
46778;BME280;32536;47.128;8.746;2022-11-28T01:09:17;91431.91;;;9.35;47.62
46778;BME280;32536;47.128;8.746;2022-11-28T01:11:46;91427.31;;;9.36;47.77
46778;BME280;32536;47.128;8.746;2022-11-28T01:14:15;91428.47;;;9.35;47.89
46778;BME280;32536;47.128;8.746;2022-11-28T01:16:44;91436.84;;;9.37;47.71
46778;BME280;32536;47.128;8.746;2022-11-28T01:19:11;91431.88;;;9.39;47.86
46778;BME280;32536;47.128;8.746;2022-11-28T01:21:39;91429.19;;;9.39;47.80
46778;BME280;32536;47.128;8.746;2022-11-28T01:24:07;91429.97;;;9.36;47.98
46778;BME280;32536;47.128;8.746;2022-11-28T01:26:36;91414.75;;;9.33;48.10
46778;BME280;32536;47.128;8.746;2022-11-28T01:29:04;91411.41;;;9.25;47.75
46778;BME280;32536;47.128;8.746;2022-11-28T01:31:31;91420.63;;;9.20;47.79
46778;BME280;32536;47.128;8.746;2022-11-28T01:33:58;91424.84;;;9.18;47.92
46778;BME280;32536;47.128;8.746;2022-11-28T01:36:25;91433.28;;;9.16;47.54
46778;BME280;32536;47.128;8.746;2022-11-28T01:38:52;91436.75;;;9.13;48.10
46778;BME280;32536;47.128;8.746;2022-11-28T01:41:23;91440.59;;;9.12;47.91
46778;BME280;32536;47.128;8.746;2022-11-28T01:46:30;91419.63;;;9.07;48.12
46778;BME280;32536;47.128;8.746;2022-11-28T01:49:04;91432.66;;;9.05;47.90
46778;BME280;32536;47.128;8.746;2022-11-28T01:51:58;91429.94;;;9.08;47.78
46778;BME280;32536;47.128;8.746;2022-11-28T01:55:02;91444.44;;;9.07;47.36
46778;BME280;32536;47.128;8.746;2022-11-28T01:57:29;91432.25;;;9.06;48.15
46778;BME280;32536;47.128;8.746;2022-11-28T02:02:37;91426.84;;;9.10;47.25
46778;BME280;32536;47.128;8.746;2022-11-28T02:05:17;91432.16;;;9.13;47.61
46778;BME280;32536;47.128;8.746;2022-11-28T02:07:46;91429.09;;;9.15;47.81
46778;BME280;32536;47.128;8.746;2022-11-28T02:10:26;91427.97;;;9.12;46.84
46778;BME280;32536;47.128;8.746;2022-11-28T02:13:14;91426.06;;;9.13;47.36
46778;BME280;32536;47.128;8.746;2022-11-28T02:22:55;91424.22;;;9.06;47.32
46778;BME280;32536;47.128;8.746;2022-11-28T02:33:59;91429.47;;;8.83;48.20
46778;BME280;32536;47.128;8.746;2022-11-28T02:36:57;91444.00;;;8.78;47.56
46778;BME280;32536;47.128;8.746;2022-11-28T02:42:37;91420.03;;;8.71;47.54
46778;BME280;32536;47.128;8.746;2022-11-28T02:49:12;91432.28;;;8.68;47.58
46778;BME280;32536;47.128;8.746;2022-11-28T02:51:42;91436.09;;;8.67;47.48
46778;BME280;32536;47.128;8.746;2022-11-28T02:54:17;91436.88;;;8.64;47.41
46778;BME280;32536;47.128;8.746;2022-11-28T02:56:48;91439.91;;;8.66;47.32
46778;BME280;32536;47.128;8.746;2022-11-28T03:02:13;91431.09;;;8.73;47.47
46778;BME280;32536;47.128;8.746;2022-11-28T03:08:05;91416.56;;;8.74;46.29
46778;BME280;32536;47.128;8.746;2022-11-28T03:19:00;91408.16;;;8.75;47.60
46778;BME280;32536;47.128;8.746;2022-11-28T03:21:52;91396.66;;;8.78;47.19
46778;BME280;32536;47.128;8.746;2022-11-28T03:24:40;91399.38;;;8.75;47.32
46778;BME280;32536;47.128;8.746;2022-11-28T03:27:22;91398.25;;;8.72;47.12
46778;BME280;32536;47.128;8.746;2022-11-28T03:32:38;91395.63;;;8.69;47.50
46778;BME280;32536;47.128;8.746;2022-11-28T03:35:18;91394.13;;;8.68;47.15
46778;BME280;32536;47.128;8.746;2022-11-28T03:37:53;91392.19;;;8.72;47.35
46778;BME280;32536;47.128;8.746;2022-11-28T03:40:27;91379.16;;;8.74;47.50
46778;BME280;32536;47.128;8.746;2022-11-28T03:43:03;91381.81;;;8.77;47.46
46778;BME280;32536;47.128;8.746;2022-11-28T03:45:44;91373.00;;;8.80;47.71
46778;BME280;32536;47.128;8.746;2022-11-28T03:48:34;91368.78;;;8.83;47.11
46778;BME280;32536;47.128;8.746;2022-11-28T03:51:13;91364.09;;;8.91;47.81
46778;BME280;32536;47.128;8.746;2022-11-28T03:53:59;91358.75;;;8.91;47.85
46778;BME280;32536;47.128;8.746;2022-11-28T03:59:25;91360.22;;;8.95;46.80
46778;BME280;32536;47.128;8.746;2022-11-28T04:07:26;91355.16;;;9.05;47.88
46778;BME280;32536;47.128;8.746;2022-11-28T04:10:07;91357.78;;;9.08;47.33
46778;BME280;32536;47.128;8.746;2022-11-28T04:12:49;91361.53;;;9.15;47.24
46778;BME280;32536;47.128;8.746;2022-11-28T04:15:35;91361.94;;;9.13;47.47
46778;BME280;32536;47.128;8.746;2022-11-28T04:18:20;91362.72;;;9.10;47.33
46778;BME280;32536;47.128;8.746;2022-11-28T04:21:13;91366.91;;;9.11;47.38
46778;BME280;32536;47.128;8.746;2022-11-28T04:23:56;91367.66;;;9.11;47.81
46778;BME280;32536;47.128;8.746;2022-11-28T04:26:33;91369.59;;;9.11;47.71
46778;BME280;32536;47.128;8.746;2022-11-28T04:29:04;91363.09;;;9.12;47.89
46778;BME280;32536;47.128;8.746;2022-11-28T04:31:37;91365.41;;;9.10;47.81
46778;BME280;32536;47.128;8.746;2022-11-28T04:34:07;91360.81;;;9.10;47.76
46778;BME280;32536;47.128;8.746;2022-11-28T04:36:37;91360.81;;;9.10;47.48
46778;BME280;32536;47.128;8.746;2022-11-28T04:39:10;91360.41;;;9.12;47.94
46778;BME280;32536;47.128;8.746;2022-11-28T04:41:47;91364.19;;;9.15;47.18
46778;BME280;32536;47.128;8.746;2022-11-28T04:44:30;91356.94;;;9.15;47.24
46778;BME280;32536;47.128;8.746;2022-11-28T04:47:02;91351.13;;;9.20;47.56
46778;BME280;32536;47.128;8.746;2022-11-28T04:49:30;91344.63;;;9.21;47.45
46778;BME280;32536;47.128;8.746;2022-11-28T04:57:37;91348.03;;;9.25;46.62
46778;BME280;32536;47.128;8.746;2022-11-28T05:00:11;91360.28;;;9.23;46.57
46778;BME280;32536;47.128;8.746;2022-11-28T05:02:42;91357.25;;;9.21;46.86
46778;BME280;32536;47.128;8.746;2022-11-28T05:05:18;91349.69;;;9.16;46.06
46778;BME280;32536;47.128;8.746;2022-11-28T05:07:46;91345.09;;;9.16;46.90
46778;BME280;32536;47.128;8.746;2022-11-28T05:10:14;91340.16;;;9.15;46.69
46778;BME280;32536;47.128;8.746;2022-11-28T05:12:41;91332.13;;;9.15;46.50
46778;BME280;32536;47.128;8.746;2022-11-28T05:15:09;91328.31;;;9.16;46.41
46778;BME280;32536;47.128;8.746;2022-11-28T05:17:36;91334.41;;;9.16;46.64
46778;BME280;32536;47.128;8.746;2022-11-28T05:20:05;91336.69;;;9.14;46.58
46778;BME280;32536;47.128;8.746;2022-11-28T05:22:32;91342.47;;;9.12;46.84
46778;BME280;32536;47.128;8.746;2022-11-28T05:24:59;91342.88;;;9.11;47.04
46778;BME280;32536;47.128;8.746;2022-11-28T05:27:25;91344.78;;;9.10;46.87
46778;BME280;32536;47.128;8.746;2022-11-28T05:29:52;91355.81;;;9.12;46.77
46778;BME280;32536;47.128;8.746;2022-11-28T05:32:19;91348.22;;;9.11;46.63
46778;BME280;32536;47.128;8.746;2022-11-28T05:34:45;91352.44;;;9.08;46.68
46778;BME280;32536;47.128;8.746;2022-11-28T05:37:12;91354.75;;;9.06;46.41
46778;BME280;32536;47.128;8.746;2022-11-28T05:39:39;91357.03;;;9.08;46.64
46778;BME280;32536;47.128;8.746;2022-11-28T05:42:05;91370.78;;;9.06;46.61
46778;BME280;32536;47.128;8.746;2022-11-28T05:44:32;91361.66;;;9.04;46.72
46778;BME280;32536;47.128;8.746;2022-11-28T05:46:59;91359.81;;;8.97;46.90
46778;BME280;32536;47.128;8.746;2022-11-28T05:49:26;91359.06;;;8.96;46.79
46778;BME280;32536;47.128;8.746;2022-11-28T05:51:53;91361.00;;;8.96;46.79
46778;BME280;32536;47.128;8.746;2022-11-28T05:54:20;91355.66;;;8.96;46.77
46778;BME280;32536;47.128;8.746;2022-11-28T05:56:46;91351.47;;;8.95;47.15
46778;BME280;32536;47.128;8.746;2022-11-28T05:59:13;91351.50;;;8.91;47.02
46778;BME280;32536;47.128;8.746;2022-11-28T06:01:40;91355.38;;;8.87;47.00
46778;BME280;32536;47.128;8.746;2022-11-28T06:04:07;91351.97;;;8.86;46.92
46778;BME280;32536;47.128;8.746;2022-11-28T06:06:34;91351.56;;;8.88;47.23
46778;BME280;32536;47.128;8.746;2022-11-28T06:09:03;91348.91;;;8.84;47.02
46778;BME280;32536;47.128;8.746;2022-11-28T06:11:31;91345.13;;;8.81;47.21
46778;BME280;32536;47.128;8.746;2022-11-28T06:13:59;91350.13;;;8.79;47.12
46778;BME280;32536;47.128;8.746;2022-11-28T06:16:28;91347.44;;;8.79;46.79
46778;BME280;32536;47.128;8.746;2022-11-28T06:19:00;91341.75;;;8.77;46.73
46778;BME280;32536;47.128;8.746;2022-11-28T06:21:29;91340.28;;;8.73;47.55
46778;BME280;32536;47.128;8.746;2022-11-28T06:23:57;91341.84;;;8.67;47.04
46778;BME280;32536;47.128;8.746;2022-11-28T06:26:25;91337.75;;;8.62;47.33
46778;BME280;32536;47.128;8.746;2022-11-28T06:28:54;91338.56;;;8.55;47.37
46778;BME280;32536;47.128;8.746;2022-11-28T06:31:23;91336.69;;;8.52;47.43
46778;BME280;32536;47.128;8.746;2022-11-28T06:33:52;91333.94;;;8.59;46.54
46778;BME280;32536;47.128;8.746;2022-11-28T06:36:19;91337.69;;;8.65;47.02
46778;BME280;32536;47.128;8.746;2022-11-28T06:38:46;91344.50;;;8.70;47.40
46778;BME280;32536;47.128;8.746;2022-11-28T06:41:16;91349.03;;;8.73;46.57
46778;BME280;32536;47.128;8.746;2022-11-28T06:43:45;91346.34;;;8.77;46.97
46778;BME280;32536;47.128;8.746;2022-11-28T06:46:19;91352.78;;;8.79;47.12
46778;BME280;32536;47.128;8.746;2022-11-28T06:48:48;91345.19;;;8.78;46.97
46778;BME280;32536;47.128;8.746;2022-11-28T06:51:16;91350.19;;;8.72;46.71
46778;BME280;32536;47.128;8.746;2022-11-28T06:53:44;91348.72;;;8.68;47.13
46778;BME280;32536;47.128;8.746;2022-11-28T06:56:14;91336.88;;;8.69;46.84
46778;BME280;32536;47.128;8.746;2022-11-28T06:58:44;91346.84;;;8.64;47.22
46778;BME280;32536;47.128;8.746;2022-11-28T07:01:16;91356.03;;;8.63;46.35
46778;BME280;32536;47.128;8.746;2022-11-28T07:03:45;91352.53;;;8.67;47.26
46778;BME280;32536;47.128;8.746;2022-11-28T07:06:14;91346.03;;;8.68;46.95
46778;BME280;32536;47.128;8.746;2022-11-28T07:08:42;91357.84;;;8.70;47.27
46778;BME280;32536;47.128;8.746;2022-11-28T07:11:17;91354.38;;;8.73;46.70
46778;BME280;32536;47.128;8.746;2022-11-28T07:13:47;91351.69;;;8.77;46.88
46778;BME280;32536;47.128;8.746;2022-11-28T07:16:17;91351.28;;;8.78;47.00
46778;BME280;32536;47.128;8.746;2022-11-28T07:18:48;91350.13;;;8.79;47.09
46778;BME280;32536;47.128;8.746;2022-11-28T07:21:16;91345.13;;;8.81;47.27
46778;BME280;32536;47.128;8.746;2022-11-28T07:23:44;91344.38;;;8.81;47.13
46778;BME280;32536;47.128;8.746;2022-11-28T07:26:12;91351.69;;;8.77;46.81
46778;BME280;32536;47.128;8.746;2022-11-28T07:28:40;91347.06;;;8.77;46.85
46778;BME280;32536;47.128;8.746;2022-11-28T07:31:09;91355.47;;;8.79;46.57
46778;BME280;32536;47.128;8.746;2022-11-28T07:33:42;91352.75;;;8.83;46.63
46778;BME280;32536;47.128;8.746;2022-11-28T07:36:12;91347.72;;;8.89;46.67
46778;BME280;32536;47.128;8.746;2022-11-28T07:38:51;91340.78;;;8.95;45.09
46778;BME280;32536;47.128;8.746;2022-11-28T07:41:22;91351.72;;;9.04;45.82
46778;BME280;32536;47.128;8.746;2022-11-28T07:43:52;91335.63;;;9.08;43.62
46778;BME280;32536;47.128;8.746;2022-11-28T07:46:21;91350.66;;;9.29;42.45
46778;BME280;32536;47.128;8.746;2022-11-28T07:48:48;91354.63;;;9.44;45.96
46778;BME280;32536;47.128;8.746;2022-11-28T07:51:26;91349.84;;;9.59;45.53
46778;BME280;32536;47.128;8.746;2022-11-28T07:53:54;91345.78;;;9.75;45.68
46778;BME280;32536;47.128;8.746;2022-11-28T07:56:23;91335.75;;;9.83;44.21
46778;BME280;32536;47.128;8.746;2022-11-28T07:58:51;91348.59;;;9.91;44.82
46778;BME280;32536;47.128;8.746;2022-11-28T08:01:21;91345.75;;;10.02;45.46
46778;BME280;32536;47.128;8.746;2022-11-28T08:03:50;91331.78;;;10.15;45.60
46778;BME280;32536;47.128;8.746;2022-11-28T08:06:20;91338.47;;;10.27;45.99
46778;BME280;32536;47.128;8.746;2022-11-28T08:08:49;91329.44;;;10.40;45.82
46778;BME280;32536;47.128;8.746;2022-11-28T08:11:18;91327.31;;;10.52;45.95
46778;BME280;32536;47.128;8.746;2022-11-28T08:13:46;91336.00;;;10.60;45.88
46778;BME280;32536;47.128;8.746;2022-11-28T08:16:15;91344.28;;;10.65;45.77
46778;BME280;32536;47.128;8.746;2022-11-28T08:18:43;91343.47;;;10.68;46.25
46778;BME280;32536;47.128;8.746;2022-11-28T08:23:42;91343.06;;;10.70;45.73
46778;BME280;32536;47.128;8.746;2022-11-28T08:26:12;91346.03;;;10.76;45.89
46778;BME280;32536;47.128;8.746;2022-11-28T08:28:41;91348.22;;;10.81;46.10
46778;BME280;32536;47.128;8.746;2022-11-28T08:31:26;91336.34;;;10.82;45.06
46778;BME280;32536;47.128;8.746;2022-11-28T08:34:00;91338.53;;;10.87;45.87
46778;BME280;32536;47.128;8.746;2022-11-28T08:36:28;91343.75;;;10.94;46.33
46778;BME280;32536;47.128;8.746;2022-11-28T08:38:56;91345.88;;;11.03;45.92
46778;BME280;32536;47.128;8.746;2022-11-28T08:41:25;91338.94;;;11.05;45.83
46778;BME280;32536;47.128;8.746;2022-11-28T08:43:51;91341.13;;;11.11;45.57
46778;BME280;32536;47.128;8.746;2022-11-28T08:46:20;91331.50;;;11.13;45.99
46778;BME280;32536;47.128;8.746;2022-11-28T08:48:48;91328.47;;;11.11;45.64
46778;BME280;32536;47.128;8.746;2022-11-28T08:51:21;91329.28;;;11.08;45.39
46778;BME280;32536;47.128;8.746;2022-11-28T08:53:49;91330.06;;;11.09;45.77
46778;BME280;32536;47.128;8.746;2022-11-28T08:56:16;91327.81;;;11.07;45.63
46778;BME280;32536;47.128;8.746;2022-11-28T08:58:43;91328.63;;;11.04;45.72
46778;BME280;32536;47.128;8.746;2022-11-28T09:01:19;91329.88;;;10.99;45.78
46778;BME280;32536;47.128;8.746;2022-11-28T09:03:47;91327.53;;;11.01;45.93
46778;BME280;32536;47.128;8.746;2022-11-28T09:06:15;91318.66;;;11.04;46.04
46778;BME280;32536;47.128;8.746;2022-11-28T09:08:43;91320.94;;;11.06;46.13
46778;BME280;32536;47.128;8.746;2022-11-28T09:11:12;91319.34;;;11.09;46.27
46778;BME280;32536;47.128;8.746;2022-11-28T09:13:40;91316.16;;;11.14;45.78
46778;BME280;32536;47.128;8.746;2022-11-28T09:16:08;91324.13;;;11.17;45.94
46778;BME280;32536;47.128;8.746;2022-11-28T09:18:34;91324.81;;;11.21;45.26
46778;BME280;32536;47.128;8.746;2022-11-28T09:21:09;91316.09;;;11.17;44.70
46778;BME280;32536;47.128;8.746;2022-11-28T09:23:39;91313.41;;;11.17;46.27
46778;BME280;32536;47.128;8.746;2022-11-28T09:26:13;91326.81;;;11.17;45.78
46778;BME280;32536;47.128;8.746;2022-11-28T09:28:41;91317.97;;;11.20;46.07
46778;BME280;32536;47.128;8.746;2022-11-28T09:31:08;91316.69;;;11.25;45.81
46778;BME280;32536;47.128;8.746;2022-11-28T09:33:37;91326.53;;;11.32;45.92
46778;BME280;32536;47.128;8.746;2022-11-28T09:36:10;91322.69;;;11.33;45.05
46778;BME280;32536;47.128;8.746;2022-11-28T09:38:38;91321.81;;;11.36;45.62
46778;BME280;32536;47.128;8.746;2022-11-28T09:44:42;91317.97;;;11.37;45.41
46778;BME280;32536;47.128;8.746;2022-11-28T09:47:24;91320.31;;;11.35;45.39
46778;BME280;32536;47.128;8.746;2022-11-28T09:50:05;91315.72;;;11.35;45.27
46778;BME280;32536;47.128;8.746;2022-11-28T09:55:51;91311.38;;;11.42;45.98
46778;BME280;32536;47.128;8.746;2022-11-28T09:58:47;91300.72;;;11.38;45.43
46778;BME280;32536;47.128;8.746;2022-11-28T10:09:53;91284.38;;;11.49;45.87
46778;BME280;32536;47.128;8.746;2022-11-28T10:13:04;91292.44;;;11.49;45.58
46778;BME280;32536;47.128;8.746;2022-11-28T10:15:55;91291.28;;;11.50;45.32
46778;BME280;32536;47.128;8.746;2022-11-28T10:21:07;91284.53;;;11.58;45.76
46778;BME280;32536;47.128;8.746;2022-11-28T10:23:47;91282.63;;;11.59;45.92
46778;BME280;32536;47.128;8.746;2022-11-28T10:26:27;91281.28;;;11.50;45.26
46778;BME280;32536;47.128;8.746;2022-11-28T10:29:10;91278.34;;;11.45;45.76
46778;BME280;32536;47.128;8.746;2022-11-28T10:31:44;91280.53;;;11.50;45.77
46778;BME280;32536;47.128;8.746;2022-11-28T10:34:14;91273.16;;;11.54;45.87
46778;BME280;32536;47.128;8.746;2022-11-28T10:39:41;91277.19;;;11.62;45.20
46778;BME280;32536;47.128;8.746;2022-11-28T10:42:28;91272.91;;;11.65;45.86
46778;BME280;32536;47.128;8.746;2022-11-28T10:45:45;91265.19;;;11.67;45.39
46778;BME280;32536;47.128;8.746;2022-11-28T10:49:07;91258.56;;;11.72;45.42
46778;BME280;32536;47.128;8.746;2022-11-28T10:54:24;91255.47;;;11.73;45.02
46778;BME280;32536;47.128;8.746;2022-11-28T10:57:16;91248.16;;;11.74;45.75
46778;BME280;32536;47.128;8.746;2022-11-28T11:00:10;91249.66;;;11.75;45.53
46778;BME280;32536;47.128;8.746;2022-11-28T11:02:53;91242.72;;;11.77;44.72
46778;BME280;32536;47.128;8.746;2022-11-28T11:05:29;91240.03;;;11.77;45.50
46778;BME280;32536;47.128;8.746;2022-11-28T11:08:22;91236.59;;;11.77;45.16
46778;BME280;32536;47.128;8.746;2022-11-28T11:16:22;91236.66;;;11.90;46.32
46778;BME280;32536;47.128;8.746;2022-11-28T11:21:18;91232.13;;;12.03;46.15
46778;BME280;32536;47.128;8.746;2022-11-28T11:23:48;91232.38;;;12.09;46.25
46778;BME280;32536;47.128;8.746;2022-11-28T11:26:38;91228.72;;;12.15;45.42
46778;BME280;32536;47.128;8.746;2022-11-28T11:31:54;91214.38;;;12.22;46.03
46778;BME280;32536;47.128;8.746;2022-11-28T11:34:22;91210.19;;;12.21;45.64
46778;BME280;32536;47.128;8.746;2022-11-28T11:36:50;91222.09;;;12.20;45.46
46778;BME280;32536;47.128;8.746;2022-11-28T11:39:22;91205.34;;;12.16;45.23
46778;BME280;32536;47.128;8.746;2022-11-28T11:44:40;91200.38;;;12.14;46.02
46778;BME280;32536;47.128;8.746;2022-11-28T11:47:08;91194.25;;;12.14;45.91
46778;BME280;32536;47.128;8.746;2022-11-28T11:49:36;91190.84;;;12.13;45.69
46778;BME280;32536;47.128;8.746;2022-11-28T11:55:12;91195.34;;;12.16;43.81
46778;BME280;32536;47.128;8.746;2022-11-28T11:57:47;91192.56;;;12.20;44.54
46778;BME280;32536;47.128;8.746;2022-11-28T12:00:21;91193.97;;;12.25;45.47
46778;BME280;32536;47.128;8.746;2022-11-28T12:02:59;91186.25;;;12.27;44.73
46778;BME280;32536;47.128;8.746;2022-11-28T12:05:45;91195.91;;;12.24;43.91
46778;BME280;32536;47.128;8.746;2022-11-28T12:08:33;91190.56;;;12.24;44.48
46778;BME280;32536;47.128;8.746;2022-11-28T12:11:17;91187.19;;;12.20;44.64
46778;BME280;32536;47.128;8.746;2022-11-28T12:13:50;91188.78;;;12.17;45.69
46778;BME280;32536;47.128;8.746;2022-11-28T12:19:12;91182.09;;;12.09;44.92
46778;BME280;32536;47.128;8.746;2022-11-28T12:21:59;91181.38;;;12.09;44.91
46778;BME280;32536;47.128;8.746;2022-11-28T12:30:23;91177.81;;;12.12;45.11
46778;BME280;32536;47.128;8.746;2022-11-28T12:39:18;91180.09;;;12.13;44.50
46778;BME280;32536;47.128;8.746;2022-11-28T12:42:28;91178.59;;;12.12;44.60
46778;BME280;32536;47.128;8.746;2022-11-28T12:46:02;91180.50;;;12.12;44.71
46778;BME280;32536;47.128;8.746;2022-11-28T12:51:40;91174.94;;;12.19;44.59
46778;BME280;32536;47.128;8.746;2022-11-28T12:57:38;91170.44;;;12.16;44.36
46778;BME280;32536;47.128;8.746;2022-11-28T13:00:19;91169.53;;;12.06;44.32
46778;BME280;32536;47.128;8.746;2022-11-28T13:03:10;91175.75;;;12.03;45.26
46778;BME280;32536;47.128;8.746;2022-11-28T13:09:15;91167.72;;;11.87;44.38
46778;BME280;32536;47.128;8.746;2022-11-28T13:15:02;91168.91;;;11.85;44.93
46778;BME280;32536;47.128;8.746;2022-11-28T13:19:54;91168.47;;;11.87;44.79
46778;BME280;32536;47.128;8.746;2022-11-28T13:25:51;91156.66;;;11.84;43.93
46778;BME280;32536;47.128;8.746;2022-11-28T13:31:55;91160.31;;;11.91;43.48
46778;BME280;32536;47.128;8.746;2022-11-28T13:34:27;91166.78;;;11.93;44.64
46778;BME280;32536;47.128;8.746;2022-11-28T13:37:03;91164.84;;;11.94;44.22
46778;BME280;32536;47.128;8.746;2022-11-28T13:39:53;91167.47;;;11.97;43.76
46778;BME280;32536;47.128;8.746;2022-11-28T13:46:07;91174.75;;;11.97;44.50
46778;BME280;32536;47.128;8.746;2022-11-28T13:53:38;91163.34;;;11.93;44.24
46778;BME280;32536;47.128;8.746;2022-11-28T14:01:13;91170.06;;;11.84;43.71
46778;BME280;32536;47.128;8.746;2022-11-28T14:06:48;91183.16;;;11.82;43.93
46778;BME280;32536;47.128;8.746;2022-11-28T14:12:42;91185.44;;;11.84;44.72
46778;BME280;32536;47.128;8.746;2022-11-28T14:15:27;91184.31;;;11.81;43.56
46778;BME280;32536;47.128;8.746;2022-11-28T14:21:54;91181.94;;;11.71;43.74
46778;BME280;32536;47.128;8.746;2022-11-28T14:24:51;91192.75;;;11.67;43.56
46778;BME280;32536;47.128;8.746;2022-11-28T14:27:48;91191.25;;;11.66;44.16
46778;BME280;32536;47.128;8.746;2022-11-28T14:30:41;91196.94;;;11.68;43.49
46778;BME280;32536;47.128;8.746;2022-11-28T14:33:23;91201.47;;;11.71;43.71
46778;BME280;32536;47.128;8.746;2022-11-28T14:41:06;91202.88;;;11.76;43.99
46778;BME280;32536;47.128;8.746;2022-11-28T14:43:41;91205.47;;;11.79;44.34
46778;BME280;32536;47.128;8.746;2022-11-28T14:54:27;91210.34;;;11.84;43.08
46778;BME280;32536;47.128;8.746;2022-11-28T14:56:57;91211.84;;;11.85;43.86
46778;BME280;32536;47.128;8.746;2022-11-28T14:59:30;91209.59;;;11.84;43.85
46778;BME280;32536;47.128;8.746;2022-11-28T15:02:36;91210.34;;;11.84;42.04
46778;BME280;32536;47.128;8.746;2022-11-28T15:08:26;91217.72;;;11.80;43.29
46778;BME280;32536;47.128;8.746;2022-11-28T15:14:25;91216.53;;;11.81;43.47
46778;BME280;32536;47.128;8.746;2022-11-28T15:16:55;91216.53;;;11.81;43.96
46778;BME280;32536;47.128;8.746;2022-11-28T15:19:29;91219.97;;;11.82;43.65
46778;BME280;32536;47.128;8.746;2022-11-28T15:22:41;91215.03;;;11.80;43.14
46778;BME280;32536;47.128;8.746;2022-11-28T15:25:24;91216.13;;;11.83;42.71
46778;BME280;32536;47.128;8.746;2022-11-28T15:27:52;91224.91;;;11.83;43.71
46778;BME280;32536;47.128;8.746;2022-11-28T15:30:22;91232.31;;;11.79;43.70
46778;BME280;32536;47.128;8.746;2022-11-28T15:32:55;91235.81;;;11.76;43.50
46778;BME280;32536;47.128;8.746;2022-11-28T15:35:24;91238.59;;;11.73;44.29
46778;BME280;32536;47.128;8.746;2022-11-28T15:37:56;91238.78;;;11.65;43.47
46778;BME280;32536;47.128;8.746;2022-11-28T15:40:31;91238.19;;;11.58;43.29
46778;BME280;32536;47.128;8.746;2022-11-28T15:43:00;91241.72;;;11.54;44.45
46778;BME280;32536;47.128;8.746;2022-11-28T15:45:31;91238.72;;;11.52;44.07
46778;BME280;32536;47.128;8.746;2022-11-28T15:48:02;91238.03;;;11.48;43.40
46778;BME280;32536;47.128;8.746;2022-11-28T15:50:32;91241.63;;;11.42;44.05
46778;BME280;32536;47.128;8.746;2022-11-28T15:53:27;91232.25;;;11.33;43.46
46778;BME280;32536;47.128;8.746;2022-11-28T15:56:13;91231.50;;;11.33;44.01
46778;BME280;32536;47.128;8.746;2022-11-28T15:58:50;91228.81;;;11.33;44.75
46778;BME280;32536;47.128;8.746;2022-11-28T16:03:58;91229.63;;;11.30;43.96
46778;BME280;32536;47.128;8.746;2022-11-28T16:06:33;91227.72;;;11.30;44.39
46778;BME280;32536;47.128;8.746;2022-11-28T16:09:04;91228.56;;;11.27;44.49
46778;BME280;32536;47.128;8.746;2022-11-28T16:11:34;91224.34;;;11.26;44.82
46778;BME280;32536;47.128;8.746;2022-11-28T16:14:07;91227.13;;;11.23;44.16
46778;BME280;32536;47.128;8.746;2022-11-28T16:16:36;91229.06;;;11.22;44.50
46778;BME280;32536;47.128;8.746;2022-11-28T16:19:06;91234.41;;;11.22;45.20
46778;BME280;32536;47.128;8.746;2022-11-28T16:21:44;91234.84;;;11.20;44.54
46778;BME280;32536;47.128;8.746;2022-11-28T16:24:25;91234.06;;;11.20;44.95
46778;BME280;32536;47.128;8.746;2022-11-28T16:27:01;91235.94;;;11.23;44.62
46778;BME280;32536;47.128;8.746;2022-11-28T16:29:34;91235.16;;;11.23;44.65
46778;BME280;32536;47.128;8.746;2022-11-28T16:32:16;91241.28;;;11.23;44.79
46778;BME280;32536;47.128;8.746;2022-11-28T16:34:48;91236.34;;;11.21;44.93
46778;BME280;32536;47.128;8.746;2022-11-28T16:37:22;91241.78;;;11.18;44.35
46778;BME280;32536;47.128;8.746;2022-11-28T16:40:05;91238.78;;;11.16;43.17
46778;BME280;32536;47.128;8.746;2022-11-28T16:42:39;91241.78;;;11.18;44.39
46778;BME280;32536;47.128;8.746;2022-11-28T16:45:15;91248.06;;;11.11;44.52
46778;BME280;32536;47.128;8.746;2022-11-28T16:47:44;91248.06;;;11.11;44.69